Mount Clare, Nebraska
Current Conditions -  °F | °C
As of 6:53 PM on Thursday 27 Nov 2014 (Local Time) from KHSI Reporting Station
Clear Clear  
Wind Chill: 22°   Ceiling: Unl
Heat Index: 32°   Visibility: 10mi
Dew Point: 16°   Wind: 14mph
Humidity: 52%   Direction: 150°SSE
Pressure: 30.1"   Gusts: NA
Location:  40.2635°N, 98.2176°W
Report Text: KHSI 280053Z AUTO 15012KT 10SM CLR 00/M09 A3010 RMK AO2 SLP217 T00001089
Loading
Personal Weather Stations






























Interactive Weather Map New forecast layout! Learn more

10-Day Weather Forecast

Advertisements
Track Severe Weather on mobile